Pagina principale
METAR-TAF:

METAR-TAF

Aeroporti :

Annecy, Francia

latitudine: 45-55-45N, longitudine: 006-05-56E, altezza: 463 m

Osservazione

Il bollettino è stato emesso 41 minuti fa, alle 09:00 UTC
Vento 3 kt da sud-ovest, variando fra sud e ovest/nord-ovest
Temperature 25°C
Umidità 50%
Pressione 1017 hPa
Visibilità 10 km o più
nessuna nube inferiore a 1500 m e nessun cumulonembo

METAR: LFLP 290900Z AUTO 22003KT 180V290 CAVOK 25/14 Q1017 NOSIG

Ora: 11:41 (09:41 UTC)

Previsione

Il bollettino è stato emesso 1 ora e 41 minuti fa, alle 08:00 UTC
Previsione valida dal 29 alle 09 UTC al 30 alle 09 UTC
Vento 6 kt da sud-ovest
Visibilità 10 km o più
nessuna nube inferiore a 1500 m e nessun cumulonembo
Probabilità 40% :
Temporaneamente
dal 29 alle 11 UTC al 29 alle 18 UTC
Poco nuvoloso ad un'altezza di 8000 ft, Cumulonembo.

TAF: LFLP 290800Z 2909/3009 22006KT CAVOK PROB40 TEMPO 2911/2918 FEW080CB

Osservazioni e previsioni meteorologiche di più di 4000 aeroporti (messaggi METAR e TAF).

Le stazioni disponibili sono rappresentate dai dischi gialli e rossi sulla carta.

Puntare il mouse per vedere il nome della stazione.

Clicca sopra per visualizzare le osservazioni e previsioni meteorologiche.

Per cambiare la mappa : fare clic sui pulsanti verdi con una croce nera per ingrandire, il pulsante verde con un trattino per diminuire, o sulla freccia verde per le mappe adiacenti.


METAR-TAF: